SAZ306 LIEO-LSMP
Flight info
| Callsign | SAZ306 |
|---|---|
| Flight time | 1h 27m |
| Altitude | 18000 |
| Route | OKIVA P872 AJO M622 DIVUL G374 PERUS A3 RETNO Z42 LTP N871 SOPLO/N0367F140 N871 SOSAL Z61 FRIBU |
| Aircraft | CL60/M-SBDE1E2E3FGHIJ1J4J5J7M3RWXYZ/LB1V1D1 |
Departure
| Time | 2026-05-03 20:18 |
|---|---|
| Airport | Olbia Costa Smeralda Airport (LIEO) |
Arrival
| Time | 2026-05-03 21:45 |
|---|---|
| Airport | Payerne Air Base (LSMP) |
| Time | Latitude | Longitude | Altitude | Speed | Heading |
|---|---|---|---|---|---|
| 2026-05-03 20:15 | 40.89371 | 9.50392 | 46 ft | 0 kts | 153° |
| 2026-05-03 20:15 | 40.89367 | 9.50395 | 46 ft | 3 kts | 153° |
| 2026-05-03 20:15 | 40.89331 | 9.50423 | 46 ft | 8 kts | 146° |
| 2026-05-03 20:15 | 40.89281 | 9.50488 | 46 ft | 12 kts | 111° |
| 2026-05-03 20:16 | 40.89269 | 9.50614 | 46 ft | 13 kts | 67° |
| 2026-05-03 20:16 | 40.89274 | 9.50626 | 46 ft | 0 kts | 61° |
| 2026-05-03 20:16 | 40.89284 | 9.50649 | 46 ft | 5 kts | 57° |
| 2026-05-03 20:17 | 40.89317 | 9.50707 | 46 ft | 10 kts | 52° |
| 2026-05-03 20:17 | 40.89368 | 9.50799 | 46 ft | 14 kts | 58° |
| 2026-05-03 20:17 | 40.89490 | 9.51043 | 46 ft | 72 kts | 56° |
| 2026-05-03 20:17 | 40.89979 | 9.51971 | 153 ft | 160 kts | 57° |
| 2026-05-03 20:18 | 40.90665 | 9.53236 | 1026 ft | 182 kts | 56° |
| 2026-05-03 20:18 | 40.91422 | 9.54625 | 2096 ft | 199 kts | 56° |
| 2026-05-03 20:18 | 40.92250 | 9.56069 | 3237 ft | 211 kts | 55° |
| 2026-05-03 20:18 | 40.93173 | 9.57761 | 4097 ft | 242 kts | 57° |
| 2026-05-03 20:19 | 40.94139 | 9.59615 | 5087 ft | 250 kts | 57° |
| 2026-05-03 20:19 | 40.95110 | 9.61473 | 6114 ft | 254 kts | 57° |
| 2026-05-03 20:19 | 40.96115 | 9.63376 | 7176 ft | 257 kts | 54° |
| 2026-05-03 20:19 | 40.97450 | 9.65023 | 8266 ft | 266 kts | 33° |
| 2026-05-03 20:20 | 40.98573 | 9.65689 | 8988 ft | 271 kts | 16° |
| 2026-05-03 20:20 | 41.01080 | 9.65641 | 10481 ft | 286 kts | 340° |
| 2026-05-03 20:20 | 41.02816 | 9.64340 | 11695 ft | 295 kts | 324° |
| 2026-05-03 20:20 | 41.04490 | 9.62811 | 12966 ft | 301 kts | 324° |
| 2026-05-03 20:21 | 41.06202 | 9.61262 | 14268 ft | 304 kts | 324° |
| 2026-05-03 20:21 | 41.07897 | 9.59639 | 15575 ft | 303 kts | 316° |
| 2026-05-03 20:21 | 41.09207 | 9.57556 | 16815 ft | 299 kts | 303° |
| 2026-05-03 20:21 | 41.10450 | 9.55251 | 17615 ft | 315 kts | 303° |
| 2026-05-03 20:22 | 41.11801 | 9.52759 | 17976 ft | 343 kts | 303° |
| 2026-05-03 20:22 | 41.13315 | 9.49968 | 18084 ft | 375 kts | 304° |
| 2026-05-03 20:22 | 41.14986 | 9.46896 | 18101 ft | 390 kts | 304° |
| 2026-05-03 20:22 | 41.16628 | 9.43882 | 18103 ft | 390 kts | 304° |
| 2026-05-03 20:23 | 41.18217 | 9.40966 | 18108 ft | 387 kts | 304° |
| 2026-05-03 20:23 | 41.19770 | 9.38109 | 18099 ft | 387 kts | 304° |
| 2026-05-03 20:23 | 41.21355 | 9.35193 | 18104 ft | 386 kts | 304° |
| 2026-05-03 20:23 | 41.22883 | 9.32268 | 18099 ft | 386 kts | 301° |
| 2026-05-03 20:24 | 41.24337 | 9.29274 | 18101 ft | 386 kts | 300° |
| 2026-05-03 20:24 | 41.25793 | 9.26264 | 18100 ft | 386 kts | 300° |
| 2026-05-03 20:24 | 41.27267 | 9.23216 | 18105 ft | 386 kts | 300° |
| 2026-05-03 20:24 | 41.28727 | 9.20196 | 18105 ft | 385 kts | 300° |
| 2026-05-03 20:25 | 41.30169 | 9.17208 | 18096 ft | 386 kts | 300° |
| 2026-05-03 20:25 | 41.31639 | 9.14159 | 18107 ft | 386 kts | 300° |
| 2026-05-03 20:25 | 41.33245 | 9.11296 | 18114 ft | 389 kts | 311° |
| 2026-05-03 20:25 | 41.35413 | 9.09057 | 18113 ft | 394 kts | 326° |
| 2026-05-03 20:26 | 41.37851 | 9.07217 | 18104 ft | 394 kts | 328° |
| 2026-05-03 20:26 | 41.40302 | 9.05374 | 18106 ft | 394 kts | 328° |
| 2026-05-03 20:26 | 41.41943 | 9.04137 | 18103 ft | 394 kts | 328° |
| 2026-05-03 20:26 | 41.45195 | 9.01683 | 18112 ft | 395 kts | 328° |
| 2026-05-03 20:27 | 41.47629 | 8.99844 | 18111 ft | 395 kts | 328° |
| 2026-05-03 20:27 | 41.50045 | 8.98017 | 18112 ft | 396 kts | 328° |
| 2026-05-03 20:27 | 41.52504 | 8.96155 | 18110 ft | 396 kts | 328° |
| 2026-05-03 20:27 | 41.54915 | 8.94328 | 18111 ft | 396 kts | 328° |
| 2026-05-03 20:28 | 41.57386 | 8.92453 | 18109 ft | 396 kts | 328° |
| 2026-05-03 20:28 | 41.59824 | 8.90602 | 18111 ft | 396 kts | 328° |
| 2026-05-03 20:28 | 41.62244 | 8.88764 | 18111 ft | 396 kts | 328° |
| 2026-05-03 20:28 | 41.64673 | 8.86916 | 18111 ft | 396 kts | 328° |
| 2026-05-03 20:29 | 41.67181 | 8.85006 | 18116 ft | 396 kts | 328° |
| 2026-05-03 20:29 | 41.69635 | 8.83137 | 18108 ft | 396 kts | 328° |
| 2026-05-03 20:29 | 41.72047 | 8.81297 | 18111 ft | 396 kts | 328° |
| 2026-05-03 20:29 | 41.74435 | 8.79473 | 18122 ft | 396 kts | 328° |
| 2026-05-03 20:30 | 41.76819 | 8.77652 | 18110 ft | 396 kts | 328° |
| 2026-05-03 20:30 | 41.79257 | 8.75848 | 18106 ft | 396 kts | 329° |
| 2026-05-03 20:30 | 41.81662 | 8.74089 | 18109 ft | 396 kts | 329° |
| 2026-05-03 20:30 | 41.83274 | 8.72909 | 18111 ft | 396 kts | 329° |
| 2026-05-03 20:31 | 41.86503 | 8.70543 | 18101 ft | 397 kts | 329° |
| 2026-05-03 20:31 | 41.88908 | 8.68779 | 18103 ft | 397 kts | 329° |
| 2026-05-03 20:31 | 41.91358 | 8.66980 | 18099 ft | 398 kts | 329° |
| 2026-05-03 20:31 | 41.93783 | 8.65197 | 18105 ft | 398 kts | 329° |
| 2026-05-03 20:32 | 41.96191 | 8.63426 | 18108 ft | 398 kts | 329° |
| 2026-05-03 20:32 | 41.98624 | 8.61633 | 18101 ft | 398 kts | 329° |
| 2026-05-03 20:32 | 42.01053 | 8.59844 | 18108 ft | 398 kts | 329° |
| 2026-05-03 20:32 | 42.03476 | 8.58056 | 18106 ft | 397 kts | 329° |
| 2026-05-03 20:33 | 42.05058 | 8.56888 | 18104 ft | 397 kts | 329° |
| 2026-05-03 20:33 | 42.08298 | 8.54494 | 18108 ft | 397 kts | 329° |
| 2026-05-03 20:33 | 42.09901 | 8.53308 | 18113 ft | 397 kts | 329° |
| 2026-05-03 20:33 | 42.13160 | 8.50895 | 18106 ft | 397 kts | 329° |
| 2026-05-03 20:34 | 42.15601 | 8.49086 | 18091 ft | 397 kts | 329° |
| 2026-05-03 20:34 | 42.17214 | 8.47889 | 18098 ft | 397 kts | 329° |
| 2026-05-03 20:34 | 42.20432 | 8.45500 | 18097 ft | 397 kts | 329° |
| 2026-05-03 20:34 | 42.22852 | 8.43700 | 18100 ft | 397 kts | 329° |
| 2026-05-03 20:35 | 42.25261 | 8.41904 | 18097 ft | 397 kts | 329° |
| 2026-05-03 20:35 | 42.26847 | 8.40719 | 18095 ft | 397 kts | 329° |
| 2026-05-03 20:35 | 42.30064 | 8.38315 | 18100 ft | 397 kts | 329° |
| 2026-05-03 20:35 | 42.32476 | 8.36511 | 18091 ft | 397 kts | 329° |
| 2026-05-03 20:36 | 42.34885 | 8.34708 | 18097 ft | 397 kts | 328° |
| 2026-05-03 20:36 | 42.36515 | 8.33487 | 18101 ft | 397 kts | 328° |
| 2026-05-03 20:36 | 42.39748 | 8.31064 | 18096 ft | 396 kts | 328° |
| 2026-05-03 20:36 | 42.42132 | 8.29275 | 18098 ft | 396 kts | 328° |
| 2026-05-03 20:37 | 42.44553 | 8.27456 | 18094 ft | 396 kts | 328° |
| 2026-05-03 20:37 | 42.46160 | 8.26248 | 18091 ft | 396 kts | 328° |
| 2026-05-03 20:37 | 42.49366 | 8.23836 | 18094 ft | 396 kts | 328° |
| 2026-05-03 20:37 | 42.51764 | 8.22030 | 18098 ft | 396 kts | 328° |
| 2026-05-03 20:38 | 42.54195 | 8.20198 | 18094 ft | 396 kts | 328° |
| 2026-05-03 20:38 | 42.56586 | 8.18394 | 18091 ft | 395 kts | 328° |
| 2026-05-03 20:38 | 42.58194 | 8.17180 | 18092 ft | 395 kts | 328° |
| 2026-05-03 20:38 | 42.61389 | 8.14765 | 18093 ft | 395 kts | 328° |
| 2026-05-03 20:39 | 42.63765 | 8.12967 | 18093 ft | 395 kts | 328° |
| 2026-05-03 20:39 | 42.65362 | 8.11759 | 18092 ft | 395 kts | 328° |
| 2026-05-03 20:39 | 42.68554 | 8.09339 | 18092 ft | 395 kts | 328° |
| 2026-05-03 20:39 | 42.70958 | 8.07516 | 18093 ft | 395 kts | 328° |
| 2026-05-03 20:40 | 42.73349 | 8.05701 | 18092 ft | 395 kts | 328° |
| 2026-05-03 20:40 | 42.75751 | 8.03875 | 18092 ft | 395 kts | 328° |
| 2026-05-03 20:40 | 42.78147 | 8.02054 | 18093 ft | 395 kts | 328° |
| 2026-05-03 20:40 | 42.80526 | 8.00252 | 18092 ft | 395 kts | 328° |
| 2026-05-03 20:41 | 42.82928 | 7.98432 | 18091 ft | 394 kts | 328° |
| 2026-05-03 20:41 | 42.85319 | 7.96618 | 18091 ft | 395 kts | 327° |
| 2026-05-03 20:41 | 42.86900 | 7.95419 | 18092 ft | 395 kts | 328° |
| 2026-05-03 20:41 | 42.90111 | 7.92980 | 18091 ft | 395 kts | 328° |
| 2026-05-03 20:42 | 42.92511 | 7.91155 | 18091 ft | 395 kts | 328° |
| 2026-05-03 20:42 | 42.94115 | 7.89935 | 18093 ft | 395 kts | 328° |
| 2026-05-03 20:42 | 42.97281 | 7.87523 | 18092 ft | 394 kts | 328° |
| 2026-05-03 20:42 | 42.99696 | 7.85682 | 18092 ft | 394 kts | 328° |
| 2026-05-03 20:43 | 43.02070 | 7.83870 | 18091 ft | 394 kts | 328° |
| 2026-05-03 20:43 | 43.03663 | 7.82653 | 18093 ft | 394 kts | 328° |
| 2026-05-03 20:43 | 43.06042 | 7.80835 | 18092 ft | 394 kts | 328° |
| 2026-05-03 20:43 | 43.09233 | 7.78388 | 18092 ft | 394 kts | 327° |
| 2026-05-03 20:44 | 43.11640 | 7.76529 | 18099 ft | 395 kts | 328° |
| 2026-05-03 20:44 | 43.13259 | 7.75277 | 18094 ft | 395 kts | 328° |
| 2026-05-03 20:44 | 43.15635 | 7.73439 | 18100 ft | 395 kts | 327° |
| 2026-05-03 20:44 | 43.18028 | 7.71587 | 18094 ft | 395 kts | 328° |
| 2026-05-03 20:45 | 43.21215 | 7.69116 | 18093 ft | 395 kts | 328° |
| 2026-05-03 20:45 | 43.22825 | 7.67868 | 18096 ft | 396 kts | 328° |
| 2026-05-03 20:45 | 43.26004 | 7.65399 | 18100 ft | 397 kts | 327° |
| 2026-05-03 20:45 | 43.28384 | 7.63452 | 18102 ft | 395 kts | 321° |
| 2026-05-03 20:46 | 43.30342 | 7.60893 | 18110 ft | 388 kts | 304° |
| 2026-05-03 20:46 | 43.31687 | 7.57759 | 18095 ft | 384 kts | 292° |
| 2026-05-03 20:46 | 43.32811 | 7.54405 | 18099 ft | 383 kts | 292° |
| 2026-05-03 20:46 | 43.33917 | 7.51116 | 18105 ft | 384 kts | 292° |
| 2026-05-03 20:47 | 43.35048 | 7.47751 | 18103 ft | 384 kts | 292° |
| 2026-05-03 20:47 | 43.36166 | 7.44422 | 18105 ft | 384 kts | 292° |
| 2026-05-03 20:47 | 43.36908 | 7.42215 | 18095 ft | 383 kts | 292° |
| 2026-05-03 20:47 | 43.38389 | 7.37796 | 18104 ft | 383 kts | 292° |
| 2026-05-03 20:48 | 43.39135 | 7.35570 | 18104 ft | 383 kts | 292° |
| 2026-05-03 20:48 | 43.40239 | 7.32272 | 18095 ft | 383 kts | 291° |
| 2026-05-03 20:48 | 43.41351 | 7.28945 | 18114 ft | 383 kts | 291° |
| 2026-05-03 20:48 | 43.42834 | 7.24503 | 18109 ft | 383 kts | 291° |
| 2026-05-03 20:49 | 43.43571 | 7.22292 | 18102 ft | 383 kts | 291° |
| 2026-05-03 20:49 | 43.44675 | 7.18978 | 18113 ft | 383 kts | 291° |
| 2026-05-03 20:49 | 43.45782 | 7.15651 | 18109 ft | 383 kts | 291° |
| 2026-05-03 20:49 | 43.47313 | 7.11209 | 18108 ft | 385 kts | 296° |
| 2026-05-03 20:50 | 43.48339 | 7.09196 | 18118 ft | 389 kts | 307° |
| 2026-05-03 20:50 | 43.50358 | 7.06665 | 18103 ft | 394 kts | 318° |
| 2026-05-03 20:50 | 43.52494 | 7.04333 | 18107 ft | 393 kts | 318° |
| 2026-05-03 20:50 | 43.55332 | 7.01214 | 18112 ft | 394 kts | 318° |
| 2026-05-03 20:51 | 43.56766 | 6.99637 | 18114 ft | 394 kts | 318° |
| 2026-05-03 20:51 | 43.59636 | 6.96476 | 18112 ft | 394 kts | 318° |
| 2026-05-03 20:51 | 43.61780 | 6.94111 | 18115 ft | 394 kts | 318° |
| 2026-05-03 20:51 | 43.63920 | 6.91748 | 18117 ft | 394 kts | 318° |
| 2026-05-03 20:52 | 43.66040 | 6.89406 | 18116 ft | 394 kts | 317° |
| 2026-05-03 20:52 | 43.67482 | 6.87811 | 18116 ft | 394 kts | 317° |
| 2026-05-03 20:52 | 43.69618 | 6.85448 | 18118 ft | 394 kts | 317° |
| 2026-05-03 20:52 | 43.72446 | 6.82314 | 18127 ft | 394 kts | 318° |
| 2026-05-03 20:53 | 43.73888 | 6.80714 | 18127 ft | 394 kts | 318° |
| 2026-05-03 20:53 | 43.76001 | 6.78369 | 18128 ft | 394 kts | 318° |
| 2026-05-03 20:53 | 43.78157 | 6.75973 | 18123 ft | 394 kts | 318° |
| 2026-05-03 20:53 | 43.81005 | 6.72806 | 18123 ft | 394 kts | 318° |
| 2026-05-03 20:54 | 43.82432 | 6.71218 | 18122 ft | 394 kts | 318° |
| 2026-05-03 20:54 | 43.86653 | 6.66385 | 18126 ft | 392 kts | 311° |
| 2026-05-03 20:54 | 43.88339 | 6.63413 | 18119 ft | 388 kts | 302° |
| 2026-05-03 20:55 | 43.89901 | 6.60341 | 18123 ft | 388 kts | 302° |
| 2026-05-03 20:55 | 43.91485 | 6.57243 | 18124 ft | 389 kts | 302° |
| 2026-05-03 20:55 | 43.93066 | 6.54150 | 18130 ft | 389 kts | 302° |
| 2026-05-03 20:55 | 43.94635 | 6.51076 | 18125 ft | 389 kts | 302° |
| 2026-05-03 20:56 | 43.96212 | 6.47986 | 18132 ft | 388 kts | 302° |
| 2026-05-03 20:56 | 43.98295 | 6.43900 | 18126 ft | 389 kts | 301° |
| 2026-05-03 20:56 | 43.99353 | 6.41824 | 18123 ft | 389 kts | 302° |
| 2026-05-03 20:56 | 44.00895 | 6.38794 | 18126 ft | 389 kts | 302° |
| 2026-05-03 20:57 | 44.02460 | 6.35718 | 18117 ft | 388 kts | 302° |
| 2026-05-03 20:57 | 44.04016 | 6.32655 | 18115 ft | 389 kts | 301° |
| 2026-05-03 20:57 | 44.05590 | 6.29556 | 18119 ft | 389 kts | 301° |
| 2026-05-03 20:57 | 44.07653 | 6.25487 | 18116 ft | 389 kts | 301° |
| 2026-05-03 20:58 | 44.08704 | 6.23412 | 18115 ft | 389 kts | 301° |
| 2026-05-03 20:58 | 44.10782 | 6.19307 | 18126 ft | 389 kts | 301° |
| 2026-05-03 20:58 | 44.11835 | 6.17223 | 18116 ft | 389 kts | 301° |
| 2026-05-03 20:58 | 44.13446 | 6.14034 | 18116 ft | 389 kts | 301° |
| 2026-05-03 20:59 | 44.14989 | 6.10967 | 18118 ft | 389 kts | 301° |
| 2026-05-03 20:59 | 44.17013 | 6.06744 | 18120 ft | 388 kts | 300° |
| 2026-05-03 20:59 | 44.17999 | 6.04673 | 18117 ft | 388 kts | 300° |
| 2026-05-03 20:59 | 44.20008 | 6.00445 | 18116 ft | 388 kts | 300° |
| 2026-05-03 21:00 | 44.20985 | 5.98387 | 18120 ft | 388 kts | 300° |
| 2026-05-03 21:00 | 44.21973 | 5.96303 | 18118 ft | 388 kts | 300° |
| 2026-05-03 21:00 | 44.23962 | 5.92105 | 18114 ft | 388 kts | 300° |
| 2026-05-03 21:00 | 44.25444 | 5.88973 | 18112 ft | 388 kts | 300° |
| 2026-05-03 21:01 | 44.26929 | 5.85832 | 18115 ft | 388 kts | 300° |
| 2026-05-03 21:01 | 44.28411 | 5.82694 | 18117 ft | 389 kts | 300° |
| 2026-05-03 21:01 | 44.29895 | 5.79545 | 18103 ft | 389 kts | 300° |
| 2026-05-03 21:01 | 44.31868 | 5.75358 | 18099 ft | 389 kts | 300° |
| 2026-05-03 21:02 | 44.32852 | 5.73266 | 18108 ft | 389 kts | 300° |
| 2026-05-03 21:02 | 44.34344 | 5.70092 | 18110 ft | 389 kts | 300° |
| 2026-05-03 21:02 | 44.35863 | 5.66986 | 18109 ft | 391 kts | 305° |
| 2026-05-03 21:02 | 44.37825 | 5.64305 | 18122 ft | 398 kts | 320° |
| 2026-05-03 21:03 | 44.40245 | 5.62426 | 18118 ft | 404 kts | 336° |
| 2026-05-03 21:03 | 44.42970 | 5.61516 | 18125 ft | 409 kts | 350° |
| 2026-05-03 21:03 | 44.45846 | 5.61050 | 18115 ft | 409 kts | 351° |
| 2026-05-03 21:03 | 44.49618 | 5.60438 | 18117 ft | 409 kts | 351° |
| 2026-05-03 21:04 | 44.51501 | 5.60131 | 18122 ft | 409 kts | 351° |
| 2026-05-03 21:04 | 44.54346 | 5.59666 | 18111 ft | 409 kts | 351° |
| 2026-05-03 21:04 | 44.57178 | 5.59202 | 18123 ft | 409 kts | 351° |
| 2026-05-03 21:04 | 44.59987 | 5.58742 | 18125 ft | 409 kts | 351° |
| 2026-05-03 21:05 | 44.62839 | 5.58274 | 18116 ft | 409 kts | 351° |
| 2026-05-03 21:05 | 44.65642 | 5.57813 | 18118 ft | 409 kts | 351° |
| 2026-05-03 21:05 | 44.69419 | 5.57191 | 18116 ft | 410 kts | 351° |
| 2026-05-03 21:05 | 44.72258 | 5.56722 | 18104 ft | 409 kts | 351° |
| 2026-05-03 21:06 | 44.74148 | 5.56410 | 18110 ft | 409 kts | 351° |
| 2026-05-03 21:06 | 44.76984 | 5.55940 | 18116 ft | 409 kts | 351° |
| 2026-05-03 21:06 | 44.79816 | 5.55471 | 18113 ft | 409 kts | 351° |
| 2026-05-03 21:06 | 44.82651 | 5.55001 | 18103 ft | 409 kts | 351° |
| 2026-05-03 21:07 | 44.85476 | 5.54532 | 18111 ft | 410 kts | 351° |
| 2026-05-03 21:07 | 44.88327 | 5.54058 | 18110 ft | 410 kts | 351° |
| 2026-05-03 21:07 | 44.91166 | 5.53585 | 18106 ft | 409 kts | 351° |
| 2026-05-03 21:07 | 44.94947 | 5.52955 | 18118 ft | 409 kts | 351° |
| 2026-05-03 21:08 | 44.96795 | 5.52647 | 18106 ft | 409 kts | 352° |
| 2026-05-03 21:08 | 44.99654 | 5.52170 | 18120 ft | 408 kts | 352° |
| 2026-05-03 21:08 | 45.02476 | 5.51699 | 18108 ft | 408 kts | 352° |
| 2026-05-03 21:08 | 45.05277 | 5.51233 | 18112 ft | 408 kts | 351° |
| 2026-05-03 21:09 | 45.08076 | 5.50766 | 18107 ft | 408 kts | 352° |
| 2026-05-03 21:09 | 45.10923 | 5.50291 | 18107 ft | 408 kts | 352° |
| 2026-05-03 21:09 | 45.13753 | 5.49818 | 18098 ft | 407 kts | 352° |
| 2026-05-03 21:09 | 45.16612 | 5.49340 | 18088 ft | 407 kts | 352° |
| 2026-05-03 21:10 | 45.19494 | 5.48857 | 18086 ft | 408 kts | 351° |
| 2026-05-03 21:10 | 45.22329 | 5.48382 | 18077 ft | 407 kts | 351° |
| 2026-05-03 21:10 | 45.25163 | 5.47906 | 18076 ft | 408 kts | 352° |
| 2026-05-03 21:10 | 45.27991 | 5.47431 | 18061 ft | 407 kts | 352° |
| 2026-05-03 21:11 | 45.30859 | 5.46949 | 18068 ft | 407 kts | 352° |
| 2026-05-03 21:11 | 45.33705 | 5.46470 | 18073 ft | 408 kts | 352° |
| 2026-05-03 21:11 | 45.36543 | 5.45992 | 18060 ft | 407 kts | 352° |
| 2026-05-03 21:11 | 45.40308 | 5.45357 | 18061 ft | 408 kts | 352° |
| 2026-05-03 21:12 | 45.42211 | 5.45035 | 18055 ft | 407 kts | 352° |
| 2026-05-03 21:12 | 45.45062 | 5.44631 | 18065 ft | 408 kts | 357° |
| 2026-05-03 21:12 | 45.47912 | 5.45041 | 18065 ft | 410 kts | 13° |
| 2026-05-03 21:12 | 45.50602 | 5.46541 | 18058 ft | 410 kts | 30° |
| 2026-05-03 21:13 | 45.52921 | 5.48987 | 18047 ft | 409 kts | 42° |
| 2026-05-03 21:13 | 45.55025 | 5.51677 | 18070 ft | 409 kts | 43° |
| 2026-05-03 21:13 | 45.57155 | 5.54400 | 17959 ft | 398 kts | 43° |
| 2026-05-03 21:13 | 45.59191 | 5.57013 | 17499 ft | 387 kts | 43° |
| 2026-05-03 21:14 | 45.61162 | 5.59546 | 17021 ft | 378 kts | 43° |
| 2026-05-03 21:14 | 45.63116 | 5.62058 | 16536 ft | 370 kts | 43° |
| 2026-05-03 21:14 | 45.65024 | 5.64513 | 16055 ft | 363 kts | 43° |
| 2026-05-03 21:14 | 45.66885 | 5.66909 | 15545 ft | 358 kts | 43° |
| 2026-05-03 21:15 | 45.68757 | 5.69307 | 15094 ft | 351 kts | 43° |
| 2026-05-03 21:15 | 45.70556 | 5.71612 | 14649 ft | 346 kts | 43° |
| 2026-05-03 21:15 | 45.72365 | 5.73932 | 14210 ft | 340 kts | 43° |
| 2026-05-03 21:15 | 45.74093 | 5.76147 | 14049 ft | 325 kts | 43° |
| 2026-05-03 21:16 | 45.75765 | 5.78291 | 14056 ft | 321 kts | 43° |
| 2026-05-03 21:16 | 45.77467 | 5.80478 | 14052 ft | 325 kts | 44° |
| 2026-05-03 21:16 | 45.79186 | 5.82688 | 14051 ft | 325 kts | 43° |
| 2026-05-03 21:16 | 45.80866 | 5.84849 | 14056 ft | 326 kts | 43° |
| 2026-05-03 21:17 | 45.82578 | 5.87055 | 14046 ft | 326 kts | 43° |
| 2026-05-03 21:17 | 45.84283 | 5.89252 | 14063 ft | 326 kts | 44° |
| 2026-05-03 21:17 | 45.85988 | 5.91450 | 14055 ft | 325 kts | 43° |
| 2026-05-03 21:17 | 45.87679 | 5.93633 | 14066 ft | 326 kts | 44° |
| 2026-05-03 21:18 | 45.89381 | 5.95831 | 14057 ft | 325 kts | 44° |
| 2026-05-03 21:18 | 45.91071 | 5.98017 | 14058 ft | 325 kts | 44° |
| 2026-05-03 21:18 | 45.92755 | 6.00197 | 14061 ft | 326 kts | 44° |
| 2026-05-03 21:18 | 45.94453 | 6.02396 | 14062 ft | 326 kts | 44° |
| 2026-05-03 21:19 | 45.96166 | 6.04616 | 14060 ft | 327 kts | 44° |
| 2026-05-03 21:19 | 45.97861 | 6.06816 | 14061 ft | 327 kts | 44° |
| 2026-05-03 21:19 | 45.99576 | 6.09042 | 14063 ft | 327 kts | 43° |
| 2026-05-03 21:19 | 46.01298 | 6.11280 | 14066 ft | 327 kts | 43° |
| 2026-05-03 21:20 | 46.03000 | 6.13494 | 14068 ft | 327 kts | 43° |
| 2026-05-03 21:20 | 46.04666 | 6.15663 | 14060 ft | 326 kts | 43° |
| 2026-05-03 21:20 | 46.06387 | 6.17905 | 14071 ft | 326 kts | 43° |
| 2026-05-03 21:20 | 46.08050 | 6.20073 | 14070 ft | 325 kts | 43° |
| 2026-05-03 21:21 | 46.09760 | 6.22306 | 14071 ft | 325 kts | 43° |
| 2026-05-03 21:21 | 46.11453 | 6.24517 | 14058 ft | 324 kts | 43° |
| 2026-05-03 21:21 | 46.13138 | 6.26719 | 14078 ft | 324 kts | 43° |
| 2026-05-03 21:21 | 46.15392 | 6.29669 | 14068 ft | 323 kts | 43° |
| 2026-05-03 21:22 | 46.16494 | 6.31114 | 14072 ft | 323 kts | 43° |
| 2026-05-03 21:22 | 46.18156 | 6.33293 | 13854 ft | 325 kts | 43° |
| 2026-05-03 21:22 | 46.19826 | 6.35483 | 13529 ft | 321 kts | 43° |
| 2026-05-03 21:22 | 46.21486 | 6.37662 | 13215 ft | 319 kts | 43° |
| 2026-05-03 21:23 | 46.23101 | 6.39786 | 12901 ft | 316 kts | 43° |
| 2026-05-03 21:23 | 46.24723 | 6.41918 | 12575 ft | 311 kts | 43° |
| 2026-05-03 21:23 | 46.26313 | 6.44011 | 12258 ft | 305 kts | 43° |
| 2026-05-03 21:23 | 46.27876 | 6.46069 | 11942 ft | 300 kts | 43° |
| 2026-05-03 21:24 | 46.29420 | 6.48106 | 11614 ft | 295 kts | 44° |
| 2026-05-03 21:24 | 46.30920 | 6.50084 | 11305 ft | 290 kts | 43° |
| 2026-05-03 21:24 | 46.32391 | 6.52026 | 11033 ft | 283 kts | 44° |
| 2026-05-03 21:24 | 46.33830 | 6.53925 | 10767 ft | 278 kts | 44° |
| 2026-05-03 21:25 | 46.35228 | 6.55774 | 10494 ft | 272 kts | 44° |
| 2026-05-03 21:25 | 46.36615 | 6.57609 | 10241 ft | 267 kts | 44° |
| 2026-05-03 21:25 | 46.37977 | 6.59414 | 9960 ft | 263 kts | 44° |
| 2026-05-03 21:25 | 46.39311 | 6.61181 | 9707 ft | 259 kts | 44° |
| 2026-05-03 21:26 | 46.40637 | 6.62939 | 9639 ft | 259 kts | 44° |
| 2026-05-03 21:26 | 46.41976 | 6.64717 | 9539 ft | 261 kts | 44° |
| 2026-05-03 21:26 | 46.43315 | 6.66495 | 9459 ft | 260 kts | 45° |
| 2026-05-03 21:26 | 46.44629 | 6.68311 | 9355 ft | 259 kts | 50° |
| 2026-05-03 21:27 | 46.45796 | 6.70354 | 9277 ft | 258 kts | 54° |
| 2026-05-03 21:27 | 46.46910 | 6.72366 | 9170 ft | 257 kts | 54° |
| 2026-05-03 21:27 | 46.48035 | 6.74390 | 9094 ft | 257 kts | 53° |
| 2026-05-03 21:27 | 46.49158 | 6.76413 | 9014 ft | 257 kts | 53° |
| 2026-05-03 21:28 | 46.50275 | 6.78424 | 8916 ft | 257 kts | 53° |
| 2026-05-03 21:28 | 46.51405 | 6.80460 | 8847 ft | 256 kts | 53° |
| 2026-05-03 21:28 | 46.52516 | 6.82461 | 8763 ft | 255 kts | 53° |
| 2026-05-03 21:28 | 46.53621 | 6.84453 | 8675 ft | 255 kts | 53° |
| 2026-05-03 21:29 | 46.54738 | 6.86469 | 8584 ft | 254 kts | 53° |
| 2026-05-03 21:29 | 46.55853 | 6.88448 | 8507 ft | 255 kts | 51° |
| 2026-05-03 21:29 | 46.57061 | 6.90346 | 8416 ft | 254 kts | 49° |
| 2026-05-03 21:29 | 46.58263 | 6.92190 | 8343 ft | 254 kts | 49° |
| 2026-05-03 21:30 | 46.59480 | 6.94061 | 8245 ft | 254 kts | 48° |
| 2026-05-03 21:30 | 46.60697 | 6.95933 | 8157 ft | 253 kts | 48° |
| 2026-05-03 21:30 | 46.61906 | 6.97795 | 8079 ft | 254 kts | 48° |
| 2026-05-03 21:30 | 46.63112 | 6.99651 | 7993 ft | 253 kts | 48° |
| 2026-05-03 21:31 | 46.64315 | 7.01507 | 7910 ft | 252 kts | 48° |
| 2026-05-03 21:31 | 46.65524 | 7.03371 | 7827 ft | 252 kts | 48° |
| 2026-05-03 21:31 | 46.66718 | 7.05214 | 7733 ft | 252 kts | 48° |
| 2026-05-03 21:31 | 46.67912 | 7.07059 | 7655 ft | 251 kts | 48° |
| 2026-05-03 21:32 | 46.69119 | 7.08925 | 7566 ft | 251 kts | 48° |
| 2026-05-03 21:32 | 46.70306 | 7.10760 | 7487 ft | 249 kts | 48° |
| 2026-05-03 21:32 | 46.71495 | 7.12602 | 7409 ft | 249 kts | 48° |
| 2026-05-03 21:32 | 46.72679 | 7.14436 | 7310 ft | 249 kts | 47° |
| 2026-05-03 21:33 | 46.73853 | 7.16255 | 7229 ft | 248 kts | 47° |
| 2026-05-03 21:33 | 46.75039 | 7.18097 | 7143 ft | 247 kts | 48° |
| 2026-05-03 21:33 | 46.76280 | 7.19833 | 7071 ft | 248 kts | 36° |
| 2026-05-03 21:33 | 46.77834 | 7.20828 | 6965 ft | 249 kts | 11° |
| 2026-05-03 21:34 | 46.79551 | 7.20760 | 6889 ft | 249 kts | 345° |
| 2026-05-03 21:34 | 46.81153 | 7.19736 | 6767 ft | 251 kts | 331° |
| 2026-05-03 21:34 | 46.82673 | 7.18535 | 6690 ft | 248 kts | 332° |
| 2026-05-03 21:34 | 46.84193 | 7.17344 | 6588 ft | 249 kts | 332° |
| 2026-05-03 21:35 | 46.85728 | 7.16142 | 6519 ft | 248 kts | 332° |
| 2026-05-03 21:35 | 46.87244 | 7.14954 | 6410 ft | 244 kts | 332° |
| 2026-05-03 21:35 | 46.88699 | 7.13814 | 6358 ft | 229 kts | 332° |
| 2026-05-03 21:35 | 46.90510 | 7.12393 | 6261 ft | 213 kts | 332° |
| 2026-05-03 21:36 | 46.91359 | 7.11726 | 6226 ft | 204 kts | 332° |
| 2026-05-03 21:36 | 46.92581 | 7.10768 | 6127 ft | 199 kts | 332° |
| 2026-05-03 21:36 | 46.93814 | 7.09798 | 6053 ft | 202 kts | 332° |
| 2026-05-03 21:36 | 46.95054 | 7.08826 | 6013 ft | 202 kts | 332° |
| 2026-05-03 21:37 | 46.96308 | 7.07898 | 6000 ft | 202 kts | 335° |
| 2026-05-03 21:37 | 46.97625 | 7.07248 | 5996 ft | 201 kts | 355° |
| 2026-05-03 21:37 | 46.98993 | 7.07542 | 5997 ft | 199 kts | 25° |
| 2026-05-03 21:37 | 47.00087 | 7.08752 | 6014 ft | 196 kts | 49° |
| 2026-05-03 21:38 | 47.00967 | 7.10259 | 6000 ft | 195 kts | 52° |
| 2026-05-03 21:38 | 47.01856 | 7.11789 | 5999 ft | 195 kts | 51° |
| 2026-05-03 21:38 | 47.02745 | 7.13298 | 5996 ft | 196 kts | 51° |
| 2026-05-03 21:38 | 47.03633 | 7.14822 | 5996 ft | 196 kts | 53° |
| 2026-05-03 21:39 | 47.04112 | 7.16611 | 5987 ft | 193 kts | 89° |
| 2026-05-03 21:39 | 47.03743 | 7.18484 | 5995 ft | 191 kts | 125° |
| 2026-05-03 21:39 | 47.02701 | 7.19603 | 5997 ft | 192 kts | 162° |
| 2026-05-03 21:39 | 47.00981 | 7.19187 | 6013 ft | 196 kts | 214° |
| 2026-05-03 21:40 | 47.00321 | 7.18256 | 6015 ft | 197 kts | 227° |
| 2026-05-03 21:40 | 46.99455 | 7.16724 | 6008 ft | 197 kts | 229° |
| 2026-05-03 21:40 | 46.98563 | 7.15186 | 6003 ft | 197 kts | 227° |
| 2026-05-03 21:40 | 46.97670 | 7.13668 | 5996 ft | 198 kts | 227° |
| 2026-05-03 21:41 | 46.96766 | 7.12136 | 5992 ft | 198 kts | 227° |
| 2026-05-03 21:41 | 46.95855 | 7.10596 | 5826 ft | 205 kts | 227° |
| 2026-05-03 21:41 | 46.94888 | 7.08991 | 5041 ft | 219 kts | 227° |
| 2026-05-03 21:41 | 46.93894 | 7.07339 | 4677 ft | 211 kts | 227° |
| 2026-05-03 21:42 | 46.92947 | 7.05767 | 4318 ft | 204 kts | 227° |
| 2026-05-03 21:42 | 46.92018 | 7.04225 | 3989 ft | 197 kts | 228° |
| 2026-05-03 21:42 | 46.91135 | 7.02761 | 3670 ft | 190 kts | 228° |
| 2026-05-03 21:42 | 46.90271 | 7.01329 | 3362 ft | 185 kts | 228° |
| 2026-05-03 21:43 | 46.89453 | 6.99973 | 3043 ft | 171 kts | 228° |
| 2026-05-03 21:43 | 46.88708 | 6.98738 | 2826 ft | 148 kts | 228° |
| 2026-05-03 21:43 | 46.88076 | 6.97690 | 2620 ft | 136 kts | 228° |
| 2026-05-03 21:43 | 46.87452 | 6.96659 | 2348 ft | 131 kts | 228° |
| 2026-05-03 21:44 | 46.86850 | 6.95666 | 2151 ft | 130 kts | 228° |
| 2026-05-03 21:44 | 46.86256 | 6.94690 | 1923 ft | 129 kts | 227° |
| 2026-05-03 21:44 | 46.85666 | 6.93724 | 1696 ft | 124 kts | 229° |
| 2026-05-03 21:44 | 46.85118 | 6.92809 | 1504 ft | 114 kts | 228° |
| 2026-05-03 21:45 | 46.84626 | 6.92001 | 1469 ft | 93 kts | 231° |
| 2026-05-03 21:45 | 46.84348 | 6.91527 | 1471 ft | 46 kts | 228° |
| 2026-05-03 21:45 | 46.84143 | 6.91194 | 1472 ft | 24 kts | 228° |
| 2026-05-03 21:45 | 46.84079 | 6.91166 | 1472 ft | 11 kts | 137° |
| 2026-05-03 21:46 | 46.84038 | 6.91233 | 1472 ft | 8 kts | 92° |
| 2026-05-03 21:46 | 46.84081 | 6.91316 | 1472 ft | 12 kts | 47° |
| 2026-05-03 21:46 | 46.84084 | 6.91385 | 1471 ft | 9 kts | 128° |
| 2026-05-03 21:46 | 46.84033 | 6.91466 | 1471 ft | 9 kts | 131° |
| 2026-05-03 21:47 | 46.84015 | 6.91539 | 1471 ft | 9 kts | 55° |
| 2026-05-03 21:47 | 46.84058 | 6.91594 | 1471 ft | 3 kts | 32° |
| 2026-05-03 21:47 | 46.84075 | 6.91573 | 1470 ft | 4 kts | 286° |
| 2026-05-03 21:47 | 46.84078 | 6.91555 | 1470 ft | 1 kts | 278° |
| 2026-05-03 21:48 | 46.84078 | 6.91554 | 1470 ft | 0 kts | 278° |